sensor_id;sensor_type;location;lat;lon;timestamp;P1;durP1;ratioP1;P2;durP2;ratioP2
6434;SDS011;3250;42.694;23.278;2022-07-29T00:02:07;24.25;;;14.80;;
6434;SDS011;3250;42.694;23.278;2022-07-29T00:04:36;10.60;;;7.80;;
6434;SDS011;3250;42.694;23.278;2022-07-29T00:07:02;10.57;;;7.25;;
6434;SDS011;3250;42.694;23.278;2022-07-29T00:09:28;10.13;;;7.68;;
6434;SDS011;3250;42.694;23.278;2022-07-29T00:11:54;11.45;;;7.50;;
6434;SDS011;3250;42.694;23.278;2022-07-29T00:14:23;11.25;;;8.10;;
6434;SDS011;3250;42.694;23.278;2022-07-29T00:16:49;18.45;;;8.65;;
6434;SDS011;3250;42.694;23.278;2022-07-29T00:19:14;13.30;;;9.50;;
6434;SDS011;3250;42.694;23.278;2022-07-29T00:21:39;12.38;;;7.72;;
6434;SDS011;3250;42.694;23.278;2022-07-29T00:24:05;8.95;;;7.30;;
6434;SDS011;3250;42.694;23.278;2022-07-29T00:26:30;10.00;;;8.43;;
6434;SDS011;3250;42.694;23.278;2022-07-29T00:29:00;9.27;;;7.03;;
6434;SDS011;3250;42.694;23.278;2022-07-29T00:31:28;8.05;;;6.85;;
6434;SDS011;3250;42.694;23.278;2022-07-29T00:33:53;10.50;;;6.80;;
6434;SDS011;3250;42.694;23.278;2022-07-29T00:36:19;9.20;;;7.70;;
6434;SDS011;3250;42.694;23.278;2022-07-29T00:38:46;10.73;;;7.03;;
6434;SDS011;3250;42.694;23.278;2022-07-29T00:41:12;10.45;;;7.63;;
6434;SDS011;3250;42.694;23.278;2022-07-29T00:43:38;11.00;;;8.10;;
6434;SDS011;3250;42.694;23.278;2022-07-29T00:46:03;11.35;;;6.97;;
6434;SDS011;3250;42.694;23.278;2022-07-29T00:48:28;16.83;;;11.20;;
6434;SDS011;3250;42.694;23.278;2022-07-29T00:50:54;22.65;;;12.25;;
6434;SDS011;3250;42.694;23.278;2022-07-29T00:53:22;26.35;;;18.10;;
6434;SDS011;3250;42.694;23.278;2022-07-29T00:55:48;13.00;;;8.52;;
6434;SDS011;3250;42.694;23.278;2022-07-29T00:58:13;14.30;;;10.27;;
6434;SDS011;3250;42.694;23.278;2022-07-29T01:00:39;15.82;;;12.05;;
6434;SDS011;3250;42.694;23.278;2022-07-29T01:03:08;15.43;;;10.73;;
6434;SDS011;3250;42.694;23.278;2022-07-29T01:05:34;14.65;;;11.07;;
6434;SDS011;3250;42.694;23.278;2022-07-29T01:08:00;15.30;;;10.40;;
6434;SDS011;3250;42.694;23.278;2022-07-29T01:10:26;17.20;;;9.60;;
6434;SDS011;3250;42.694;23.278;2022-07-29T01:12:52;16.63;;;11.02;;
6434;SDS011;3250;42.694;23.278;2022-07-29T01:15:19;20.10;;;13.27;;
6434;SDS011;3250;42.694;23.278;2022-07-29T01:17:48;12.05;;;7.93;;
6434;SDS011;3250;42.694;23.278;2022-07-29T01:26:09;15.82;;;11.23;;
6434;SDS011;3250;42.694;23.278;2022-07-29T01:32:12;12.68;;;9.15;;
6434;SDS011;3250;42.694;23.278;2022-07-29T01:40:24;11.23;;;8.25;;
6434;SDS011;3250;42.694;23.278;2022-07-29T01:42:57;14.32;;;8.70;;
6434;SDS011;3250;42.694;23.278;2022-07-29T01:45:31;16.70;;;8.15;;
6434;SDS011;3250;42.694;23.278;2022-07-29T01:48:10;10.45;;;7.30;;
6434;SDS011;3250;42.694;23.278;2022-07-29T01:50:38;10.00;;;7.47;;
6434;SDS011;3250;42.694;23.278;2022-07-29T01:53:10;10.43;;;7.35;;
6434;SDS011;3250;42.694;23.278;2022-07-29T01:55:40;10.45;;;7.85;;
6434;SDS011;3250;42.694;23.278;2022-07-29T01:58:09;10.82;;;7.47;;
6434;SDS011;3250;42.694;23.278;2022-07-29T02:00:37;11.05;;;7.22;;
6434;SDS011;3250;42.694;23.278;2022-07-29T02:03:05;8.77;;;7.88;;
6434;SDS011;3250;42.694;23.278;2022-07-29T02:05:35;10.52;;;7.72;;
6434;SDS011;3250;42.694;23.278;2022-07-29T02:08:03;11.00;;;7.32;;
6434;SDS011;3250;42.694;23.278;2022-07-29T02:10:31;9.05;;;7.50;;
6434;SDS011;3250;42.694;23.278;2022-07-29T02:12:58;10.60;;;7.93;;
6434;SDS011;3250;42.694;23.278;2022-07-29T02:15:25;17.20;;;8.02;;
6434;SDS011;3250;42.694;23.278;2022-07-29T02:17:55;11.27;;;8.15;;
6434;SDS011;3250;42.694;23.278;2022-07-29T02:20:25;14.95;;;8.60;;
6434;SDS011;3250;42.694;23.278;2022-07-29T02:22:52;14.30;;;7.45;;
6434;SDS011;3250;42.694;23.278;2022-07-29T02:25:19;9.90;;;8.30;;
6434;SDS011;3250;42.694;23.278;2022-07-29T02:27:48;11.27;;;7.80;;
6434;SDS011;3250;42.694;23.278;2022-07-29T02:30:15;11.45;;;7.78;;
6434;SDS011;3250;42.694;23.278;2022-07-29T02:32:41;15.82;;;8.85;;
6434;SDS011;3250;42.694;23.278;2022-07-29T02:35:10;11.88;;;8.40;;
6434;SDS011;3250;42.694;23.278;2022-07-29T02:37:38;12.07;;;7.82;;
6434;SDS011;3250;42.694;23.278;2022-07-29T02:40:05;11.65;;;8.02;;
6434;SDS011;3250;42.694;23.278;2022-07-29T02:42:36;12.63;;;7.43;;
6434;SDS011;3250;42.694;23.278;2022-07-29T02:45:04;11.55;;;7.68;;
6434;SDS011;3250;42.694;23.278;2022-07-29T02:47:34;11.85;;;8.30;;
6434;SDS011;3250;42.694;23.278;2022-07-29T02:52:47;13.02;;;8.00;;
6434;SDS011;3250;42.694;23.278;2022-07-29T02:55:23;14.82;;;7.82;;
6434;SDS011;3250;42.694;23.278;2022-07-29T02:57:57;16.58;;;7.85;;
6434;SDS011;3250;42.694;23.278;2022-07-29T03:00:25;10.88;;;7.30;;
6434;SDS011;3250;42.694;23.278;2022-07-29T03:02:54;12.13;;;7.13;;
6434;SDS011;3250;42.694;23.278;2022-07-29T03:05:21;9.93;;;7.45;;
6434;SDS011;3250;42.694;23.278;2022-07-29T03:07:49;13.68;;;8.13;;
6434;SDS011;3250;42.694;23.278;2022-07-29T03:10:19;14.32;;;8.98;;
6434;SDS011;3250;42.694;23.278;2022-07-29T03:12:46;13.35;;;8.73;;
6434;SDS011;3250;42.694;23.278;2022-07-29T03:15:12;14.73;;;8.75;;
6434;SDS011;3250;42.694;23.278;2022-07-29T03:17:38;16.27;;;9.40;;
6434;SDS011;3250;42.694;23.278;2022-07-29T03:20:04;15.10;;;9.23;;
6434;SDS011;3250;42.694;23.278;2022-07-29T03:22:32;14.65;;;9.52;;
6434;SDS011;3250;42.694;23.278;2022-07-29T03:25:06;17.10;;;9.70;;
6434;SDS011;3250;42.694;23.278;2022-07-29T03:27:33;16.73;;;10.45;;
6434;SDS011;3250;42.694;23.278;2022-07-29T03:29:59;12.48;;;9.35;;
6434;SDS011;3250;42.694;23.278;2022-07-29T03:32:24;16.45;;;9.63;;
6434;SDS011;3250;42.694;23.278;2022-07-29T03:34:50;16.60;;;10.95;;
6434;SDS011;3250;42.694;23.278;2022-07-29T03:37:15;17.90;;;10.65;;
6434;SDS011;3250;42.694;23.278;2022-07-29T03:39:41;16.35;;;11.18;;
6434;SDS011;3250;42.694;23.278;2022-07-29T03:42:08;19.60;;;13.95;;
6434;SDS011;3250;42.694;23.278;2022-07-29T03:44:37;18.25;;;11.32;;
6434;SDS011;3250;42.694;23.278;2022-07-29T03:47:05;18.25;;;11.10;;
6434;SDS011;3250;42.694;23.278;2022-07-29T03:49:32;42.10;;;28.27;;
6434;SDS011;3250;42.694;23.278;2022-07-29T03:52:00;33.05;;;21.27;;
6434;SDS011;3250;42.694;23.278;2022-07-29T03:54:25;19.65;;;10.50;;
6434;SDS011;3250;42.694;23.278;2022-07-29T03:56:51;12.65;;;9.43;;
6434;SDS011;3250;42.694;23.278;2022-07-29T03:59:18;32.65;;;21.35;;
6434;SDS011;3250;42.694;23.278;2022-07-29T04:01:46;19.23;;;13.40;;
6434;SDS011;3250;42.694;23.278;2022-07-29T04:04:12;17.60;;;9.38;;
6434;SDS011;3250;42.694;23.278;2022-07-29T04:06:41;19.65;;;8.32;;
6434;SDS011;3250;42.694;23.278;2022-07-29T04:09:07;13.80;;;8.43;;
6434;SDS011;3250;42.694;23.278;2022-07-29T04:11:34;27.38;;;18.27;;
6434;SDS011;3250;42.694;23.278;2022-07-29T04:14:00;19.50;;;13.65;;
6434;SDS011;3250;42.694;23.278;2022-07-29T04:16:25;17.60;;;9.98;;
6434;SDS011;3250;42.694;23.278;2022-07-29T04:18:51;27.48;;;16.55;;
6434;SDS011;3250;42.694;23.278;2022-07-29T04:21:16;23.52;;;11.43;;
6434;SDS011;3250;42.694;23.278;2022-07-29T04:23:42;15.77;;;11.82;;
6434;SDS011;3250;42.694;23.278;2022-07-29T04:26:10;20.00;;;13.15;;
6434;SDS011;3250;42.694;23.278;2022-07-29T04:28:35;17.30;;;11.82;;
6434;SDS011;3250;42.694;23.278;2022-07-29T04:31:01;21.60;;;13.43;;
6434;SDS011;3250;42.694;23.278;2022-07-29T04:33:26;16.90;;;12.05;;
6434;SDS011;3250;42.694;23.278;2022-07-29T04:35:52;20.65;;;13.60;;
6434;SDS011;3250;42.694;23.278;2022-07-29T04:38:17;22.30;;;12.00;;
6434;SDS011;3250;42.694;23.278;2022-07-29T04:40:43;18.80;;;10.32;;
6434;SDS011;3250;42.694;23.278;2022-07-29T04:43:08;17.23;;;9.73;;
6434;SDS011;3250;42.694;23.278;2022-07-29T04:45:34;15.38;;;9.93;;
6434;SDS011;3250;42.694;23.278;2022-07-29T04:47:59;15.02;;;9.18;;
6434;SDS011;3250;42.694;23.278;2022-07-29T04:50:25;13.73;;;9.82;;
6434;SDS011;3250;42.694;23.278;2022-07-29T04:52:50;14.52;;;9.18;;
6434;SDS011;3250;42.694;23.278;2022-07-29T04:55:16;15.60;;;12.07;;
6434;SDS011;3250;42.694;23.278;2022-07-29T04:57:41;13.27;;;11.32;;
6434;SDS011;3250;42.694;23.278;2022-07-29T05:00:07;14.88;;;11.77;;
6434;SDS011;3250;42.694;23.278;2022-07-29T05:02:33;16.08;;;11.45;;
6434;SDS011;3250;42.694;23.278;2022-07-29T05:04:58;14.32;;;11.48;;
6434;SDS011;3250;42.694;23.278;2022-07-29T05:07:24;15.70;;;11.45;;
6434;SDS011;3250;42.694;23.278;2022-07-29T05:09:49;12.98;;;9.38;;
6434;SDS011;3250;42.694;23.278;2022-07-29T05:12:14;13.90;;;9.45;;
6434;SDS011;3250;42.694;23.278;2022-07-29T05:14:40;14.85;;;9.35;;
6434;SDS011;3250;42.694;23.278;2022-07-29T05:17:05;13.52;;;9.50;;
6434;SDS011;3250;42.694;23.278;2022-07-29T05:19:31;13.20;;;9.02;;
6434;SDS011;3250;42.694;23.278;2022-07-29T05:21:56;17.95;;;9.60;;
6434;SDS011;3250;42.694;23.278;2022-07-29T05:24:22;13.18;;;9.30;;
6434;SDS011;3250;42.694;23.278;2022-07-29T05:26:47;24.13;;;10.30;;
6434;SDS011;3250;42.694;23.278;2022-07-29T05:29:13;13.75;;;9.82;;
6434;SDS011;3250;42.694;23.278;2022-07-29T05:31:38;19.60;;;12.00;;
6434;SDS011;3250;42.694;23.278;2022-07-29T05:34:04;14.25;;;10.45;;
6434;SDS011;3250;42.694;23.278;2022-07-29T05:36:29;15.43;;;11.18;;
6434;SDS011;3250;42.694;23.278;2022-07-29T05:38:55;19.08;;;12.27;;
6434;SDS011;3250;42.694;23.278;2022-07-29T05:41:20;16.67;;;11.27;;
6434;SDS011;3250;42.694;23.278;2022-07-29T05:43:46;19.67;;;11.55;;
6434;SDS011;3250;42.694;23.278;2022-07-29T05:46:11;22.30;;;16.02;;
6434;SDS011;3250;42.694;23.278;2022-07-29T05:48:38;14.50;;;11.20;;
6434;SDS011;3250;42.694;23.278;2022-07-29T05:51:04;13.15;;;10.18;;
6434;SDS011;3250;42.694;23.278;2022-07-29T05:53:30;19.73;;;11.55;;
6434;SDS011;3250;42.694;23.278;2022-07-29T05:55:55;13.68;;;10.73;;
6434;SDS011;3250;42.694;23.278;2022-07-29T05:58:20;19.85;;;13.07;;
6434;SDS011;3250;42.694;23.278;2022-07-29T06:00:46;14.68;;;11.05;;
6434;SDS011;3250;42.694;23.278;2022-07-29T06:03:11;16.10;;;10.90;;
6434;SDS011;3250;42.694;23.278;2022-07-29T06:05:37;11.82;;;9.30;;
6434;SDS011;3250;42.694;23.278;2022-07-29T06:08:02;13.98;;;8.70;;
6434;SDS011;3250;42.694;23.278;2022-07-29T06:10:30;12.15;;;8.75;;
6434;SDS011;3250;42.694;23.278;2022-07-29T06:12:56;9.15;;;7.40;;
6434;SDS011;3250;42.694;23.278;2022-07-29T06:15:21;15.88;;;8.77;;
6434;SDS011;3250;42.694;23.278;2022-07-29T06:17:46;15.30;;;9.85;;
6434;SDS011;3250;42.694;23.278;2022-07-29T06:20:13;11.63;;;6.60;;
6434;SDS011;3250;42.694;23.278;2022-07-29T06:22:38;11.35;;;5.70;;
6434;SDS011;3250;42.694;23.278;2022-07-29T06:25:04;10.38;;;5.78;;
6434;SDS011;3250;42.694;23.278;2022-07-29T06:27:29;6.15;;;4.47;;
6434;SDS011;3250;42.694;23.278;2022-07-29T06:29:56;6.57;;;4.45;;
6434;SDS011;3250;42.694;23.278;2022-07-29T06:32:22;8.10;;;4.53;;
6434;SDS011;3250;42.694;23.278;2022-07-29T06:34:47;4.10;;;3.67;;
6434;SDS011;3250;42.694;23.278;2022-07-29T06:37:13;6.10;;;3.90;;
6434;SDS011;3250;42.694;23.278;2022-07-29T06:39:39;6.15;;;4.45;;
6434;SDS011;3250;42.694;23.278;2022-07-29T06:42:04;5.38;;;3.72;;
6434;SDS011;3250;42.694;23.278;2022-07-29T06:44:30;9.38;;;4.30;;
6434;SDS011;3250;42.694;23.278;2022-07-29T06:46:56;5.47;;;4.18;;
6434;SDS011;3250;42.694;23.278;2022-07-29T06:49:21;7.97;;;4.40;;
6434;SDS011;3250;42.694;23.278;2022-07-29T06:51:48;6.30;;;4.15;;
6434;SDS011;3250;42.694;23.278;2022-07-29T06:54:13;4.13;;;3.47;;
6434;SDS011;3250;42.694;23.278;2022-07-29T06:56:39;6.78;;;4.25;;
6434;SDS011;3250;42.694;23.278;2022-07-29T06:59:07;4.43;;;3.45;;
6434;SDS011;3250;42.694;23.278;2022-07-29T07:01:34;16.42;;;4.07;;
6434;SDS011;3250;42.694;23.278;2022-07-29T07:04:00;5.47;;;3.90;;
6434;SDS011;3250;42.694;23.278;2022-07-29T07:06:26;5.13;;;3.85;;
6434;SDS011;3250;42.694;23.278;2022-07-29T07:08:51;5.32;;;3.30;;
6434;SDS011;3250;42.694;23.278;2022-07-29T07:11:17;5.07;;;3.65;;
6434;SDS011;3250;42.694;23.278;2022-07-29T07:13:42;9.05;;;3.30;;
6434;SDS011;3250;42.694;23.278;2022-07-29T07:16:08;6.30;;;3.97;;
6434;SDS011;3250;42.694;23.278;2022-07-29T07:18:33;7.38;;;3.80;;
6434;SDS011;3250;42.694;23.278;2022-07-29T07:20:58;5.40;;;3.85;;
6434;SDS011;3250;42.694;23.278;2022-07-29T07:23:24;9.15;;;3.95;;
6434;SDS011;3250;42.694;23.278;2022-07-29T07:25:50;5.78;;;3.58;;
6434;SDS011;3250;42.694;23.278;2022-07-29T07:28:15;6.70;;;3.60;;
6434;SDS011;3250;42.694;23.278;2022-07-29T07:30:40;6.13;;;4.35;;
6434;SDS011;3250;42.694;23.278;2022-07-29T07:33:06;5.65;;;4.20;;
6434;SDS011;3250;42.694;23.278;2022-07-29T07:35:31;6.40;;;4.00;;
6434;SDS011;3250;42.694;23.278;2022-07-29T07:37:57;5.95;;;3.45;;
6434;SDS011;3250;42.694;23.278;2022-07-29T07:40:23;4.88;;;3.53;;
6434;SDS011;3250;42.694;23.278;2022-07-29T07:42:48;6.28;;;3.50;;
6434;SDS011;3250;42.694;23.278;2022-07-29T07:45:14;7.43;;;3.58;;
6434;SDS011;3250;42.694;23.278;2022-07-29T07:47:39;5.93;;;3.50;;
6434;SDS011;3250;42.694;23.278;2022-07-29T07:50:05;6.50;;;3.40;;
6434;SDS011;3250;42.694;23.278;2022-07-29T07:52:32;6.85;;;4.18;;
6434;SDS011;3250;42.694;23.278;2022-07-29T07:54:58;4.28;;;3.88;;
6434;SDS011;3250;42.694;23.278;2022-07-29T07:57:23;5.15;;;3.63;;
6434;SDS011;3250;42.694;23.278;2022-07-29T07:59:48;4.63;;;3.40;;
6434;SDS011;3250;42.694;23.278;2022-07-29T08:02:14;6.88;;;3.78;;
6434;SDS011;3250;42.694;23.278;2022-07-29T08:04:39;4.88;;;3.53;;
6434;SDS011;3250;42.694;23.278;2022-07-29T08:07:05;4.13;;;3.72;;
6434;SDS011;3250;42.694;23.278;2022-07-29T08:09:32;4.85;;;3.20;;
6434;SDS011;3250;42.694;23.278;2022-07-29T08:11:59;6.78;;;3.30;;
6434;SDS011;3250;42.694;23.278;2022-07-29T08:14:28;9.73;;;3.67;;
6434;SDS011;3250;42.694;23.278;2022-07-29T08:16:55;4.25;;;3.70;;
6434;SDS011;3250;42.694;23.278;2022-07-29T08:19:20;4.28;;;3.22;;
6434;SDS011;3250;42.694;23.278;2022-07-29T08:21:46;5.35;;;3.13;;
6434;SDS011;3250;42.694;23.278;2022-07-29T08:24:11;3.25;;;2.95;;
6434;SDS011;3250;42.694;23.278;2022-07-29T08:27:12;4.88;;;3.17;;
6434;SDS011;3250;42.694;23.278;2022-07-29T08:29:39;3.40;;;3.10;;
6434;SDS011;3250;42.694;23.278;2022-07-29T08:32:05;5.85;;;3.10;;
6434;SDS011;3250;42.694;23.278;2022-07-29T08:34:31;3.75;;;3.38;;
6434;SDS011;3250;42.694;23.278;2022-07-29T08:36:57;4.00;;;3.17;;
6434;SDS011;3250;42.694;23.278;2022-07-29T08:39:22;3.33;;;3.03;;
6434;SDS011;3250;42.694;23.278;2022-07-29T08:41:48;4.47;;;2.78;;
6434;SDS011;3250;42.694;23.278;2022-07-29T08:44:16;3.67;;;2.90;;
6434;SDS011;3250;42.694;23.278;2022-07-29T08:46:42;3.78;;;3.45;;
6434;SDS011;3250;42.694;23.278;2022-07-29T08:49:09;6.10;;;3.83;;
6434;SDS011;3250;42.694;23.278;2022-07-29T08:51:35;3.97;;;3.35;;
6434;SDS011;3250;42.694;23.278;2022-07-29T08:54:03;5.45;;;2.90;;
6434;SDS011;3250;42.694;23.278;2022-07-29T08:56:30;3.10;;;2.80;;
6434;SDS011;3250;42.694;23.278;2022-07-29T08:58:56;7.80;;;2.70;;
6434;SDS011;3250;42.694;23.278;2022-07-29T09:01:24;4.00;;;3.13;;
6434;SDS011;3250;42.694;23.278;2022-07-29T09:03:54;3.13;;;2.83;;
6434;SDS011;3250;42.694;23.278;2022-07-29T09:06:21;51.78;;;6.75;;
6434;SDS011;3250;42.694;23.278;2022-07-29T09:08:47;50.53;;;5.95;;
6434;SDS011;3250;42.694;23.278;2022-07-29T09:11:13;94.90;;;9.25;;
6434;SDS011;3250;42.694;23.278;2022-07-29T09:13:39;53.83;;;5.75;;
6434;SDS011;3250;42.694;23.278;2022-07-29T09:16:04;12.68;;;3.55;;
6434;SDS011;3250;42.694;23.278;2022-07-29T09:18:40;25.13;;;3.85;;
6434;SDS011;3250;42.694;23.278;2022-07-29T09:21:12;73.43;;;11.25;;
6434;SDS011;3250;42.694;23.278;2022-07-29T09:24:19;15.82;;;3.88;;
6434;SDS011;3250;42.694;23.278;2022-07-29T09:26:44;96.28;;;12.27;;
6434;SDS011;3250;42.694;23.278;2022-07-29T09:29:16;55.22;;;5.88;;
6434;SDS011;3250;42.694;23.278;2022-07-29T09:31:47;8.85;;;4.15;;
6434;SDS011;3250;42.694;23.278;2022-07-29T09:34:15;5.38;;;3.25;;
6434;SDS011;3250;42.694;23.278;2022-07-29T09:36:43;56.20;;;7.28;;
6434;SDS011;3250;42.694;23.278;2022-07-29T09:39:11;103.22;;;11.00;;
6434;SDS011;3250;42.694;23.278;2022-07-29T09:41:50;87.63;;;7.88;;
6434;SDS011;3250;42.694;23.278;2022-07-29T09:44:18;167.98;;;16.77;;
6434;SDS011;3250;42.694;23.278;2022-07-29T09:46:56;84.93;;;9.93;;
6434;SDS011;3250;42.694;23.278;2022-07-29T09:49:30;99.95;;;11.65;;
6434;SDS011;3250;42.694;23.278;2022-07-29T09:52:14;116.75;;;12.55;;
6434;SDS011;3250;42.694;23.278;2022-07-29T09:54:40;113.70;;;13.82;;
6434;SDS011;3250;42.694;23.278;2022-07-29T09:57:06;108.45;;;14.30;;
6434;SDS011;3250;42.694;23.278;2022-07-29T09:59:37;177.52;;;21.85;;
6434;SDS011;3250;42.694;23.278;2022-07-29T10:02:10;108.72;;;12.93;;
6434;SDS011;3250;42.694;23.278;2022-07-29T10:04:40;56.83;;;7.63;;
6434;SDS011;3250;42.694;23.278;2022-07-29T10:07:07;58.63;;;11.95;;
6434;SDS011;3250;42.694;23.278;2022-07-29T10:09:33;93.13;;;11.63;;
6434;SDS011;3250;42.694;23.278;2022-07-29T10:12:10;55.05;;;8.48;;
6434;SDS011;3250;42.694;23.278;2022-07-29T10:14:39;66.47;;;9.40;;
6434;SDS011;3250;42.694;23.278;2022-07-29T10:17:05;90.82;;;11.57;;
6434;SDS011;3250;42.694;23.278;2022-07-29T10:19:32;90.20;;;15.55;;
6434;SDS011;3250;42.694;23.278;2022-07-29T10:21:58;92.68;;;13.32;;
6434;SDS011;3250;42.694;23.278;2022-07-29T10:24:28;106.85;;;10.05;;
6434;SDS011;3250;42.694;23.278;2022-07-29T10:26:55;60.42;;;12.65;;
6434;SDS011;3250;42.694;23.278;2022-07-29T10:29:23;74.20;;;8.05;;
6434;SDS011;3250;42.694;23.278;2022-07-29T10:32:00;94.93;;;13.05;;
6434;SDS011;3250;42.694;23.278;2022-07-29T10:43:36;59.65;;;10.32;;
6434;SDS011;3250;42.694;23.278;2022-07-29T10:46:06;61.50;;;8.68;;
6434;SDS011;3250;42.694;23.278;2022-07-29T10:48:32;56.53;;;5.88;;
6434;SDS011;3250;42.694;23.278;2022-07-29T10:50:59;59.70;;;10.15;;
6434;SDS011;3250;42.694;23.278;2022-07-29T10:56:31;83.75;;;8.77;;
6434;SDS011;3250;42.694;23.278;2022-07-29T11:01:46;59.60;;;11.48;;
6434;SDS011;3250;42.694;23.278;2022-07-29T11:04:13;95.22;;;12.85;;
6434;SDS011;3250;42.694;23.278;2022-07-29T11:09:27;173.35;;;23.50;;
6434;SDS011;3250;42.694;23.278;2022-07-29T11:11:55;573.35;;;67.80;;
6434;SDS011;3250;42.694;23.278;2022-07-29T11:17:23;805.47;;;183.98;;
6434;SDS011;3250;42.694;23.278;2022-07-29T11:19:49;767.05;;;133.75;;
6434;SDS011;3250;42.694;23.278;2022-07-29T11:22:34;412.42;;;52.95;;
6434;SDS011;3250;42.694;23.278;2022-07-29T11:25:13;648.45;;;107.70;;
6434;SDS011;3250;42.694;23.278;2022-07-29T11:27:45;424.10;;;97.95;;
6434;SDS011;3250;42.694;23.278;2022-07-29T11:30:12;1999.90;;;999.90;;
6434;SDS011;3250;42.694;23.278;2022-07-29T11:32:38;1999.90;;;999.90;;
6434;SDS011;3250;42.694;23.278;2022-07-29T11:37:46;426.58;;;81.47;;
6434;SDS011;3250;42.694;23.278;2022-07-29T11:40:33;396.00;;;73.82;;
6434;SDS011;3250;42.694;23.278;2022-07-29T11:42:59;1999.90;;;388.60;;
6434;SDS011;3250;42.694;23.278;2022-07-29T11:45:25;633.58;;;216.68;;
6434;SDS011;3250;42.694;23.278;2022-07-29T11:47:57;427.58;;;68.78;;
6434;SDS011;3250;42.694;23.278;2022-07-29T11:50:28;820.50;;;149.75;;
6434;SDS011;3250;42.694;23.278;2022-07-29T11:52:55;841.15;;;192.00;;
6434;SDS011;3250;42.694;23.278;2022-07-29T11:55:22;1999.90;;;999.90;;
6434;SDS011;3250;42.694;23.278;2022-07-29T11:57:53;4.55;;;3.60;;
6434;SDS011;3250;42.694;23.278;2022-07-29T12:00:33;4.90;;;3.40;;
6434;SDS011;3250;42.694;23.278;2022-07-29T12:03:03;5.28;;;4.40;;
6434;SDS011;3250;42.694;23.278;2022-07-29T12:05:37;5.32;;;4.03;;
6434;SDS011;3250;42.694;23.278;2022-07-29T12:08:04;3.88;;;3.35;;
6434;SDS011;3250;42.694;23.278;2022-07-29T12:10:31;3.53;;;3.17;;
6434;SDS011;3250;42.694;23.278;2022-07-29T12:12:57;4.85;;;3.35;;
6434;SDS011;3250;42.694;23.278;2022-07-29T12:15:22;6.22;;;3.60;;
6434;SDS011;3250;42.694;23.278;2022-07-29T12:17:49;3.28;;;2.97;;
6434;SDS011;3250;42.694;23.278;2022-07-29T12:20:21;4.80;;;3.75;;
6434;SDS011;3250;42.694;23.278;2022-07-29T12:22:48;6.07;;;3.13;;
6434;SDS011;3250;42.694;23.278;2022-07-29T12:25:14;4.20;;;3.80;;
6434;SDS011;3250;42.694;23.278;2022-07-29T12:27:42;3.65;;;3.28;;
6434;SDS011;3250;42.694;23.278;2022-07-29T12:30:11;3.95;;;3.20;;
6434;SDS011;3250;42.694;23.278;2022-07-29T12:32:42;3.60;;;3.30;;
6434;SDS011;3250;42.694;23.278;2022-07-29T12:37:40;4.80;;;4.10;;
6434;SDS011;3250;42.694;23.278;2022-07-29T12:40:07;5.95;;;3.70;;
6434;SDS011;3250;42.694;23.278;2022-07-29T12:42:36;5.80;;;4.00;;
6434;SDS011;3250;42.694;23.278;2022-07-29T12:45:02;5.25;;;4.53;;
6434;SDS011;3250;42.694;23.278;2022-07-29T12:47:28;4.40;;;4.00;;
6434;SDS011;3250;42.694;23.278;2022-07-29T12:50:10;4.20;;;3.80;;
6434;SDS011;3250;42.694;23.278;2022-07-29T12:52:39;4.45;;;4.05;;
6434;SDS011;3250;42.694;23.278;2022-07-29T12:55:04;7.82;;;3.90;;
6434;SDS011;3250;42.694;23.278;2022-07-29T12:57:30;6.47;;;3.85;;
6434;SDS011;3250;42.694;23.278;2022-07-29T13:00:06;4.55;;;3.90;;
6434;SDS011;3250;42.694;23.278;2022-07-29T13:02:35;4.53;;;4.13;;
6434;SDS011;3250;42.694;23.278;2022-07-29T13:05:02;5.53;;;3.60;;
6434;SDS011;3250;42.694;23.278;2022-07-29T13:07:29;4.22;;;3.83;;
6434;SDS011;3250;42.694;23.278;2022-07-29T13:13:04;5.35;;;4.53;;
6434;SDS011;3250;42.694;23.278;2022-07-29T13:15:32;4.28;;;3.88;;
6434;SDS011;3250;42.694;23.278;2022-07-29T13:17:58;4.43;;;4.03;;
6434;SDS011;3250;42.694;23.278;2022-07-29T13:20:25;5.75;;;3.70;;
6434;SDS011;3250;42.694;23.278;2022-07-29T13:22:54;4.65;;;3.72;;
6434;SDS011;3250;42.694;23.278;2022-07-29T13:25:23;8.25;;;4.30;;
6434;SDS011;3250;42.694;23.278;2022-07-29T13:27:53;4.72;;;3.80;;
6434;SDS011;3250;42.694;23.278;2022-07-29T13:30:19;6.50;;;5.57;;
6434;SDS011;3250;42.694;23.278;2022-07-29T13:32:46;6.22;;;4.30;;
6434;SDS011;3250;42.694;23.278;2022-07-29T13:35:12;4.82;;;4.10;;
6434;SDS011;3250;42.694;23.278;2022-07-29T13:37:38;5.05;;;3.90;;
6434;SDS011;3250;42.694;23.278;2022-07-29T13:40:04;4.13;;;3.70;;
6434;SDS011;3250;42.694;23.278;2022-07-29T13:42:34;7.38;;;3.75;;
6434;SDS011;3250;42.694;23.278;2022-07-29T13:45:00;5.40;;;3.83;;
6434;SDS011;3250;42.694;23.278;2022-07-29T13:47:26;8.38;;;3.80;;
6434;SDS011;3250;42.694;23.278;2022-07-29T13:49:51;7.13;;;4.22;;
6434;SDS011;3250;42.694;23.278;2022-07-29T13:52:18;13.10;;;4.45;;
6434;SDS011;3250;42.694;23.278;2022-07-29T13:54:44;4.30;;;3.85;;
6434;SDS011;3250;42.694;23.278;2022-07-29T13:57:11;4.28;;;3.70;;
6434;SDS011;3250;42.694;23.278;2022-07-29T13:59:37;5.03;;;3.78;;
6434;SDS011;3250;42.694;23.278;2022-07-29T14:02:04;6.97;;;3.63;;
6434;SDS011;3250;42.694;23.278;2022-07-29T14:04:29;9.77;;;3.70;;
6434;SDS011;3250;42.694;23.278;2022-07-29T14:06:55;5.60;;;4.25;;
6434;SDS011;3250;42.694;23.278;2022-07-29T14:09:20;13.63;;;4.03;;
6434;SDS011;3250;42.694;23.278;2022-07-29T14:11:46;3.95;;;3.55;;
6434;SDS011;3250;42.694;23.278;2022-07-29T14:14:14;4.57;;;3.88;;
6434;SDS011;3250;42.694;23.278;2022-07-29T14:16:39;5.15;;;3.95;;
6434;SDS011;3250;42.694;23.278;2022-07-29T14:19:04;4.70;;;3.78;;
6434;SDS011;3250;42.694;23.278;2022-07-29T14:21:30;5.13;;;3.63;;
6434;SDS011;3250;42.694;23.278;2022-07-29T14:23:55;5.70;;;3.63;;
6434;SDS011;3250;42.694;23.278;2022-07-29T14:26:21;4.97;;;3.60;;
6434;SDS011;3250;42.694;23.278;2022-07-29T14:28:47;6.95;;;3.80;;
6434;SDS011;3250;42.694;23.278;2022-07-29T14:31:13;4.75;;;3.83;;
6434;SDS011;3250;42.694;23.278;2022-07-29T14:33:39;5.63;;;4.10;;
6434;SDS011;3250;42.694;23.278;2022-07-29T14:36:04;6.60;;;4.10;;
6434;SDS011;3250;42.694;23.278;2022-07-29T14:38:30;4.93;;;3.60;;
6434;SDS011;3250;42.694;23.278;2022-07-29T14:40:55;5.30;;;3.50;;
6434;SDS011;3250;42.694;23.278;2022-07-29T14:43:21;6.05;;;3.75;;
6434;SDS011;3250;42.694;23.278;2022-07-29T14:45:46;4.95;;;3.67;;
6434;SDS011;3250;42.694;23.278;2022-07-29T14:48:11;4.47;;;3.80;;
6434;SDS011;3250;42.694;23.278;2022-07-29T14:50:37;9.15;;;3.60;;
6434;SDS011;3250;42.694;23.278;2022-07-29T14:53:03;3.65;;;3.35;;
6434;SDS011;3250;42.694;23.278;2022-07-29T14:55:29;4.20;;;3.80;;
6434;SDS011;3250;42.694;23.278;2022-07-29T14:57:54;5.15;;;3.78;;
6434;SDS011;3250;42.694;23.278;2022-07-29T15:00:21;6.18;;;4.18;;
6434;SDS011;3250;42.694;23.278;2022-07-29T15:02:47;7.70;;;4.10;;
6434;SDS011;3250;42.694;23.278;2022-07-29T15:05:13;4.32;;;3.58;;
6434;SDS011;3250;42.694;23.278;2022-07-29T15:07:38;7.70;;;4.05;;
6434;SDS011;3250;42.694;23.278;2022-07-29T15:10:04;5.82;;;4.05;;
6434;SDS011;3250;42.694;23.278;2022-07-29T15:12:30;6.25;;;4.03;;
6434;SDS011;3250;42.694;23.278;2022-07-29T15:14:56;4.32;;;3.60;;
6434;SDS011;3250;42.694;23.278;2022-07-29T15:17:21;4.95;;;4.15;;
6434;SDS011;3250;42.694;23.278;2022-07-29T15:19:47;4.78;;;3.92;;
6434;SDS011;3250;42.694;23.278;2022-07-29T15:22:12;5.22;;;4.05;;
6434;SDS011;3250;42.694;23.278;2022-07-29T15:24:38;5.68;;;4.47;;
6434;SDS011;3250;42.694;23.278;2022-07-29T15:27:03;7.45;;;4.15;;
6434;SDS011;3250;42.694;23.278;2022-07-29T15:29:29;5.20;;;4.13;;
6434;SDS011;3250;42.694;23.278;2022-07-29T15:31:54;5.03;;;3.80;;
6434;SDS011;3250;42.694;23.278;2022-07-29T15:34:19;5.57;;;4.28;;
6434;SDS011;3250;42.694;23.278;2022-07-29T15:36:46;4.82;;;4.30;;